Tiempo atmosférico en la estación meteorológica de Es Mercadal, Illes Balears (77 m.)



Fecha
DESCASC
Temp. máxima en grados centígrados (hora)
DESCASC
Temp. mínima en grados centígrados (hora)
DESCASC
Temp. media en grados centígrados
DESCASC
Racha de viento máxima en m/sg (hora)
DESCASC
Velocidad máxima media en intervalos de 10 minutos(hora)
DESCASC
Precipitaciones diarias en mm
DESCASC
Precipitaciones de 00:00 a 06:00 en mm
DESCASC
Precipitaciones de 06:00 a 12:00 en mm
DESCASC
Precipitaciones de 12:00 a 18:00 en mm
DESCASC
Precipitaciones de 18:00 a 24:00 en mm
DESCASC
24-09-2020 28 (14:40) 21 (03:20) 24.5 14.17 (19:30) 8.33 (19:50) 0 0 0 0 0
23-09-2020 26.5 (14:10) 21.2 (00:00) 23.9 10.56 (14:30) 7.5 (18:20) 0 0 0 0 0
22-09-2020 25.9 (14:30) 19.7 (00:00) 22.8 7.5 (22:10) 5.28 (22:20) 0.8 0 0.8 0 0
21-09-2020 26.8 (12:10) 19 (00:00) 22.9 7.22 (13:10) 4.17 (13:10) 23.4 0 0 23.4 0
20-09-2020 28.6 (14:30) 20 (00:00) 24.3 9.17 (15:10) 5.83 (03:10) 0 0 0 0 0
19-09-2020 30 (15:10) 21.9 (00:00) 25.9 12.22 (12:50) 8.61 (12:50) 0.6 0.6 0 0 0
18-09-2020 29.2 (14:50) 21.2 (00:00) 25.2 8.33 (21:40) 5.28 (20:40) 0 0 0 0 0
17-09-2020 31.7 (14:30) 19.9 (00:00) 25.8 6.39 (14:40) 4.44 (14:50) 0 0 0 0 0
16-09-2020 29.8 (12:30) 20 (00:00) 24.9 6.11 (16:20) 4.17 (16:40) 0 0 0 0 0
15-09-2020 31.9 (13:50) 19 (00:00) 25.4 7.22 (15:00) 4.17 (15:10) 0 0 0 0 0
14-09-2020 29.7 (15:40) 19.5 (00:00) 24.6 6.39 (17:00) 4.17 (17:20) 0 0 0 0 0
13-09-2020 29.4 (14:20) 20.3 (00:00) 24.8 6.39 (11:00) 4.17 (11:00) 0 0 0 0 0
12-09-2020 27.6 (11:40) 21.1 (00:00) 24.4 9.17 (14:50) 6.94 (15:50) 0 0 0 0 0
11-09-2020 25.9 (12:50) 19.4 (00:00) 22.6 12.78 (14:20) 9.17 (14:30) 0 0 0 0 0
10-09-2020 24.6 (14:20) 18.9 (00:00) 21.8 8.89 (16:20) 5.83 (15:10) 5.4 0 1.6 0 3.8
09-09-2020 27.8 (12:50) 17.8 (00:00) 22.8 10 (15:40) 7.22 (15:40) 0 0 0 0 0
08-09-2020 28.2 (15:20) 19.2 (00:00) 23.7 10 (01:20) 5.83 (00:50) 0 0 0 0 0
07-09-2020 22.9 (00:30) 16.4 (09:30) 19.6 15 (04:40) 10 (04:40) 28.8 6.4 20.4 1.8 0.2
06-09-2020 26.7 (15:10) 19.1 (00:00) 22.9 10.83 (12:50) 7.5 (12:50) 0 0 0 0 0
05-09-2020 27.4 (16:40) 17.6 (00:00) 22.5 8.89 (13:40) 5.83 (14:20) 0 0 0 0 0
04-09-2020 27.9 (10:40) 18.9 (00:00) 23.4 7.5 (17:00) 4.44 (19:30) 0 0 0 0 0
03-09-2020 28.3 (15:10) 18.5 (00:00) 23.4 7.5 (11:30) 5 (11:40) 0 0 0 0 0
02-09-2020 25.6 (14:20) 18.6 (00:00) 22.1 11.67 (14:10) 7.78 (13:50) 0 0 0 0 0
01-09-2020 27.5 (13:40) 17.9 (00:00) 22.7 9.72 (12:30) 4.17 (12:30) 0.6 0.6 0 0 0
31-08-2020 26.2 (16:30) 15.9 (00:00) 21.1 13.33 (02:30) 8.89 (02:30) 9.4 9.4 0 0 0
30-08-2020 24.2 (13:10) 18.4 (00:00) 21.3 8.61 (18:00) 5.83 (18:00) 0 0 0 0 0
29-08-2020 25.1 (01:00) 20.4 (00:00) 22.8 12.5 (16:00) 7.5 (16:00) 6.4 3.6 2.4 0.2 0.2
28-08-2020 31.8 (17:40) 22.5 (00:00) 27.1 10.56 (14:40) 7.78 (14:30) 0 0 0 0 0
27-08-2020 32.2 (12:00) 23.4 (00:00) 27.8 6.94 (18:20) 5 (18:20) 0 0 0 0 0
26-08-2020 32.5 (12:50) 22.1 (00:00) 27.3 6.39 (13:00) 4.17 (11:00) 0 0 0 0 0

Gráficas

Temp. máximas Temp. mínimas Temp. medias Precipitaciones Rachas de viento máximas Velocidades máximas media en intervalos de 10 minutos

Datos horarios

Fecha y hora oficial Temperatura (ºC) Velocidad del viento (km/h) Dirección del viento Racha (km/h) Dirección de racha Precipitación (mm) Presión (hPa) Tendencia (hPa) Humedad (%)
2020-09-24 23:00:00 24.1 20 Sudoeste 30 Sudoeste 0 -- -- 76
2020-09-24 22:00:00 24.2 17 Sudoeste 27 Oeste 0 -- -- 70
2020-09-24 21:00:00 24.2 18 Oeste 40 Oeste 0 -- -- 72
2020-09-24 20:00:00 24.5 27 Oeste 51 Oeste 0 -- -- 67
2020-09-24 19:00:00 25.5 22 Oeste 34 Oeste 0 -- -- 63
2020-09-24 18:00:00 26.8 17 Oeste 29 Oeste 0 -- -- 61
2020-09-24 17:00:00 27.4 21 Sudoeste 35 Sur 0 -- -- 65
2020-09-24 16:00:00 26.5 26 Sudoeste 43 Sur 0 -- -- 69
2020-09-24 15:00:00 27.3 24 Sur 36 Sudoeste 0 -- -- 67
2020-09-24 14:00:00 27.7 19 Sudoeste 31 Sur 0 -- -- 67
2020-09-24 13:00:00 27 19 Sudoeste 29 Sudoeste 0 -- -- 63
2020-09-24 12:00:00 26.1 19 Sur 29 Sur 0 -- -- 72
2020-09-24 11:00:00 25.2 18 Sudoeste 31 Sudoeste 0 -- -- 76
2020-09-24 10:00:00 24.4 18 Sudoeste 26 Sudoeste 0 -- -- 84
2020-09-24 09:00:00 22.8 13 Sur 18 Sur 0 -- -- 90
2020-09-24 08:00:00 21.6 10 Sur 17 Sudoeste 0 -- -- 91
2020-09-24 07:00:00 21.5 13 Sudoeste 18 Sudoeste 0 -- -- 92
2020-09-24 06:00:00 21.2 6 Sur 11 Sur 0 -- -- 93
2020-09-24 05:00:00 21.3 5 Sur 10 Sur 0 -- -- 91
2020-09-24 04:00:00 21.2 7 Sur 10 Sur 0 -- -- 92
2020-09-24 03:00:00 21.2 5 Sur 13 Sudoeste 0 -- -- 91
2020-09-24 02:00:00 21.6 8 Sudoeste 17 Sudoeste 0 -- -- 91
2020-09-24 01:00:00 22.1 10 Sudoeste 21 Sudoeste 0 -- -- 89
2020-09-24 00:00:00 22.3 13 Sudoeste 18 Sudoeste 0 -- -- 91
2020-09-23 23:00:00 22.1 8 Sur 12 Sur 0 -- -- 91
2020-09-23 22:00:00 22.8 8 Sudoeste 25 Sudoeste 0 -- -- 88
2020-09-23 21:00:00 23.6 18 Sudoeste 30 Sudoeste 0 -- -- 85
2020-09-23 20:00:00 23.7 21 Sudoeste 32 Sur 0 -- -- 83
2020-09-23 19:00:00 24.2 22 Sudoeste 37 Sudoeste 0 -- -- 81
2020-09-23 18:00:00 25 24 Sudoeste 35 Sudoeste 0 -- -- 78
2020-09-23 17:00:00 25.9 21 Sudoeste 35 Sur 0 -- -- 75
2020-09-23 16:00:00 25 24 Sudoeste 37 Sudoeste 0 -- -- 77
2020-09-23 15:00:00 25.4 23 Sudoeste 38 Sudoeste 0 -- -- 74
2020-09-23 14:00:00 26.2 22 Sudoeste 33 Sudoeste 0 -- -- 69
2020-09-23 13:00:00 25.9 21 Sudoeste 31 Sudoeste 0 -- -- 68
2020-09-23 12:00:00 25.7 17 Sur 29 Sur 0 -- -- 68
2020-09-23 11:00:00 24.9 15 Sur 22 Sur 0 -- -- 71
2020-09-23 10:00:00 24.1 13 Sur 17 Sur 0 -- -- 77
2020-09-23 09:00:00 22.7 6 Sur 12 Sur 0 -- -- 84
2020-09-23 08:00:00 21.4 4 Sur 19 Sudoeste 0 -- -- 87
2020-09-23 07:00:00 21.6 13 Sudoeste 25 Sudoeste 0 -- -- 86
2020-09-23 06:00:00 22 17 Sudoeste 27 Sudoeste 0 -- -- 85
2020-09-23 05:00:00 21.9 17 Sudoeste 23 Sudoeste 0 -- -- 85
2020-09-23 04:00:00 21.9 15 Sudoeste 25 Sudoeste 0 -- -- 84
2020-09-23 03:00:00 22.3 18 Sudoeste 27 Sudoeste 0 -- -- 82
2020-09-23 02:00:00 22.2 16 Sudoeste 24 Sudoeste 0 -- -- 84
2020-09-23 01:00:00 22 13 Sudoeste 18 Sudoeste 0 -- -- 85
2020-09-23 00:00:00 22.3 14 Sudoeste 22 Sudoeste 0 -- -- 82
2020-09-22 23:00:00 22.8 17 Sudoeste 27 Sudoeste 0 -- -- 82
2020-09-22 22:00:00 22.7 15 Sudoeste 25 Sudoeste 0 -- -- 82
2020-09-22 21:00:00 22.6 10 Sudoeste 16 Sudoeste 0 -- -- 80
2020-09-22 20:00:00 22.3 4 Sur 17 Sudoeste 0 -- -- 78
2020-09-22 19:00:00 23.9 8 Sudoeste 19 Sudoeste 0 -- -- 71
2020-09-22 18:00:00 23.7 13 Sudoeste 21 Sudoeste 0 -- -- 72
2020-09-22 17:00:00 25.4 6 Sudoeste 15 Sudoeste 0 -- -- 69
2020-09-22 16:00:00 23.8 0 Calma 12 Noroeste 0 -- -- 67
2020-09-22 15:00:00 24.8 5 Nordeste 17 Este 0 -- -- 62
2020-09-22 14:00:00 24.4 7 Nordeste 18 Norte 0 -- -- 64
2020-09-22 13:00:00 25.3 6 Norte 12 Norte 0 -- -- 59
2020-09-22 12:00:00 25.6 9 Norte 15 Norte 0 -- -- 65
2020-09-22 11:00:00 24.9 6 Oeste 13 Oeste 0 -- -- 67
2020-09-22 10:00:00 23.2 3 Sudeste 6 Sur 0 -- -- 78
2020-09-22 09:00:00 21.5 0 Calma 5 Nordeste 0.2 -- -- 90
2020-09-22 08:00:00 19.7 4 Nordeste 14 Noroeste 0.6 -- -- 91
2020-09-22 07:00:00 20.1 6 Sudoeste 8 Sudoeste 0 -- -- 89
2020-09-22 06:00:00 20.3 5 Sudoeste 7 Sudoeste 0 -- -- 88
2020-09-22 05:00:00 20.1 3 Sudoeste 8 Sur 0 -- -- 87
2020-09-22 04:00:00 20.4 8 Sur 9 Sur 0 -- -- 88
2020-09-22 03:00:00 20.3 6 Sudoeste 9 Sudoeste 0 -- -- 89
2020-09-22 02:00:00 20 2 Sudoeste 11 Sur 0 -- -- 86
2020-09-22 01:00:00 20 6 Sudoeste 9 Sur 0 -- -- 84
2020-09-22 00:00:00 20 5 Sudoeste 18 Sudeste 0 -- -- 84
2020-09-21 23:00:00 21.1 8 Sur 15 Sudeste 0 -- -- 84
2020-09-21 22:00:00 20.9 6 Sudoeste 9 Sudoeste 0 -- -- 83
2020-09-21 21:00:00 20.7 2 Noroeste 5 Sudeste 0 -- -- 85
2020-09-21 20:00:00 22.7 5 Sudoeste 11 Sur 0 -- -- 71
2020-09-21 19:00:00 24 3 Sudoeste 6 Nordeste 0 -- -- 70
2020-09-21 18:00:00 24.1 0 Calma 10 Nordeste 0 -- -- 73
2020-09-21 17:00:00 23.3 6 Nordeste 9 Nordeste 0 -- -- 76
2020-09-21 16:00:00 23.7 2 Sur 11 Sudeste 0 -- -- 78
2020-09-21 15:00:00 20.8 4 Sur 8 Nordeste 0.8 -- -- 90
2020-09-21 14:00:00 20.3 8 Norte 26 Este 9.2 -- -- 89
2020-09-21 13:00:00 21.3 12 Nordeste 17 Nordeste 13.4 -- -- 86
2020-09-21 12:00:00 25.6 11 Sudoeste 19 Sudoeste 0 -- -- 58
2020-09-21 11:00:00 25.6 6 Sur 16 Sur 0 -- -- 61
2020-09-21 10:00:00 25.4 4 Sur 9 Sur 0 -- -- 62
2020-09-21 09:00:00 22.7 2 Sur 5 Sudoeste 0 -- -- 73
2020-09-21 08:00:00 19.9 3 Sur 8 Sur 0 -- -- 81
2020-09-21 07:00:00 19.5 2 Sudoeste 3 Sur 0 -- -- 83
2020-09-21 06:00:00 19.4 2 Sudoeste 4 Oeste 0 -- -- 83
2020-09-21 05:00:00 19.8 2 Sur 5 Sudoeste 0 -- -- 81
2020-09-21 04:00:00 19.9 5 Sur 6 Sur 0 -- -- 81
2020-09-21 03:00:00 19.8 4 Sudoeste 6 Sudoeste 0 -- -- 82
2020-09-21 02:00:00 20 4 Sudoeste 4 Sudoeste 0 -- -- 82
2020-09-21 01:00:00 20.4 3 Sudoeste 4 Sur 0 -- -- 80
2020-09-21 00:00:00 20.1 3 Oeste 6 Oeste 0 -- -- 80
2020-09-20 23:00:00 20.4 0 Calma 5 Oeste 0 -- -- 78
2020-09-20 22:00:00 21.3 0 Calma 4 Nordeste 0 -- -- 74
2020-09-20 21:00:00 22.3 3 Nordeste 5 Nordeste 0 -- -- 68
2020-09-20 20:00:00 23.5 4 Norte 12 Norte 0 -- -- 65
2020-09-20 19:00:00 25.1 7 Norte 15 Norte 0 -- -- 57
2020-09-20 18:00:00 25.8 4 Norte 21 Norte 0 -- -- 51
2020-09-20 17:00:00 26.1 15 Norte 23 Norte 0 -- -- 50
2020-09-20 16:00:00 25.9 14 Norte 33 Noroeste 0 -- -- 54
2020-09-20 15:00:00 26.9 19 Norte 28 Norte 0 -- -- 53
2020-09-20 14:00:00 27.8 15 Oeste 31 Noroeste 0 -- -- 51
2020-09-20 13:00:00 26.9 15 Noroeste 25 Noroeste 0 -- -- 57
2020-09-20 12:00:00 25.5 19 Norte 28 Norte 0 -- -- 66
2020-09-20 11:00:00 26.9 12 Oeste 23 Oeste 0 -- -- 62
2020-09-20 10:00:00 25.4 13 Oeste 22 Oeste 0 -- -- 67
2020-09-20 09:00:00 23.6 9 Oeste 17 Sudoeste 0 -- -- 75
2020-09-20 08:00:00 22 11 Sudoeste 15 Sudoeste 0 -- -- 82
2020-09-20 07:00:00 22.1 9 Sudoeste 19 Sudoeste 0 -- -- 82
2020-09-20 06:00:00 22.2 12 Sudoeste 19 Sudoeste 0 -- -- 83
2020-09-20 05:00:00 22.3 9 Sudoeste 22 Sudoeste 0 -- -- 81
2020-09-20 04:00:00 22.7 17 Sudoeste 30 Sudoeste 0 -- -- 81
2020-09-20 03:00:00 23 19 Sudoeste 29 Sudoeste 0 -- -- 77
2020-09-20 02:00:00 23 17 Sudoeste 27 Sudoeste 0 -- -- 76
2020-09-20 01:00:00 23.1 17 Sudoeste 26 Sudoeste 0 -- -- 78
2020-09-20 00:00:00 23.1 17 Sudoeste 27 Sudoeste 0 -- -- 71
2020-09-19 23:00:00 22.9 16 Sudoeste 24 Sudoeste 0 -- -- 66
2020-09-19 22:00:00 22.3 3 Sudoeste 6 Sudeste 0 -- -- 70
2020-09-19 21:00:00 23.1 3 Sudoeste 5 Sudoeste 0 -- -- 68
2020-09-19 20:00:00 24.3 2 Oeste 13 Oeste 0 -- -- 65
2020-09-19 19:00:00 26.6 8 Oeste 19 Oeste 0 -- -- 63
2020-09-19 18:00:00 27.6 12 Oeste 24 Noroeste 0 -- -- 62
2020-09-19 17:00:00 27.8 16 Noroeste 31 Oeste 0 -- -- 63
2020-09-19 16:00:00 29.7 13 Oeste 32 Oeste 0 -- -- 53
2020-09-19 15:00:00 29.5 16 Sudoeste 30 Oeste 0 -- -- 56
2020-09-19 14:00:00 28.9 19 Oeste 39 Sudoeste 0 -- -- 62
2020-09-19 13:00:00 27.5 31 Sudoeste 44 Sudoeste 0 -- -- 69
2020-09-19 12:00:00 27.5 27 Sur 41 Sur 0 -- -- 69
2020-09-19 11:00:00 26.6 24 Sur 36 Sudoeste 0 -- -- 74
2020-09-19 10:00:00 26.4 12 Sudeste 21 Sudeste 0 -- -- 80
2020-09-19 09:00:00 24 9 Sudeste 15 Sudeste 0 -- -- 92
2020-09-19 08:00:00 22.1 2 Sudoeste 6 Sudeste 0 -- -- 93
2020-09-19 07:00:00 22.3 5 Sur 7 Sur 0 -- -- 92
2020-09-19 06:00:00 22.7 0 Calma 12 Sudeste 0 -- -- 91
2020-09-19 05:00:00 23 5 Sudeste 21 Sur 0 -- -- 89
2020-09-19 04:00:00 23.5 19 Sur 31 Sudeste 0 -- -- 87
2020-09-19 03:00:00 23.5 22 Sur 32 Sur 0 -- -- 87
2020-09-19 02:00:00 23.3 21 Sudoeste 32 Sudoeste 0 -- -- 88
2020-09-19 01:00:00 23 15 Sur 31 Sudoeste 0.6 -- -- 89
2020-09-19 00:00:00 23.4 18 Sudeste 26 Sur 0 -- -- 87
2020-09-18 23:00:00 23.4 16 Sudeste 27 Sur 0 -- -- 85
2020-09-18 22:00:00 23.8 17 Sudeste 30 Sudeste 0 -- -- 84
2020-09-18 21:00:00 24 17 Sur 26 Sur 0 -- -- 84
2020-09-18 20:00:00 24.5 15 Sur 25 Sur 0 -- -- 81
2020-09-18 19:00:00 25.4 8 Sudeste 17 Sudeste 0 -- -- 71
2020-09-18 18:00:00 25.5 9 Sur 20 Sur 0 -- -- 74
2020-09-18 17:00:00 26 13 Sudoeste 18 Sudoeste 0 -- -- 70
2020-09-18 16:00:00 27.5 10 Sur 20 Sudoeste 0 -- -- 59
2020-09-18 15:00:00 28.6 12 Sudoeste 22 Sudoeste 0 -- -- 57
2020-09-18 14:00:00 27.1 12 Sur 25 Sudoeste 0 -- -- 66
2020-09-18 13:00:00 28 14 Sur 24 Sudoeste 0 -- -- 59
2020-09-18 12:00:00 28.4 12 Sur 22 Sudeste 0 -- -- 54
2020-09-18 11:00:00 27.1 8 Sudeste 20 Sudeste 0 -- -- 65
2020-09-18 10:00:00 25.4 10 Sudeste -- -- -- -- -- 75
2020-09-18 09:00:00 23.1 6 Sur 13 Sudeste 0 -- -- 84
2020-09-18 08:00:00 21.7 3 Sudeste 9 Sudeste 0 -- -- 87
2020-09-18 07:00:00 21.2 4 Sudoeste 14 Sur 0 -- -- 88
2020-09-18 06:00:00 22 8 Sur 15 Sudeste 0 -- -- 85
2020-09-18 05:00:00 22.1 12 Sudeste 14 Sudeste 0 -- -- 86
2020-09-18 04:00:00 22.7 8 Sur 19 Sur 0 -- -- 86
2020-09-18 03:00:00 22.7 9 Sur 14 Sur 0 -- -- 86
2020-09-18 02:00:00 22.3 5 Sur 11 Sur 0 -- -- 83
2020-09-18 01:00:00 22.7 5 Sur 6 Sur 0 -- -- 84
2020-09-18 00:00:00 22.7 3 Sur 9 Sudoeste 0 -- -- 85
2020-09-17 23:00:00 22.8 8 Sur 11 Sur 0 -- -- 84
2020-09-17 22:00:00 23.7 6 Sur 12 Sudeste 0 -- -- 79
2020-09-17 21:00:00 24.1 7 Sudeste 10 Sudeste 0 -- -- 75
2020-09-17 20:00:00 24.2 4 Sur 13 Sudoeste 0 -- -- 72
2020-09-17 19:00:00 26.3 3 Norte 9 Norte 0 -- -- 71
2020-09-17 18:00:00 26.3 10 Norte 20 Norte 0 -- -- 68
2020-09-17 17:00:00 28.8 10 Norte 19 Norte 0 -- -- 52
2020-09-17 16:00:00 27.9 13 Norte 20 Norte 0 -- -- 61
2020-09-17 15:00:00 29.4 15 Norte 23 Noroeste 0 -- -- 46
2020-09-17 14:00:00 30.2 8 Sudoeste 21 Sur 0 -- -- 47
2020-09-17 13:00:00 27.9 9 Sur 22 Sur 0 -- -- 65
2020-09-17 12:00:00 28.2 9 Sudoeste 18 Oeste 0 -- -- 52
2020-09-17 11:00:00 26.8 9 Oeste 15 Oeste 0 -- -- 62
2020-09-17 10:00:00 25.3 5 Sudoeste 10 Sudoeste 0 -- -- 70
2020-09-17 09:00:00 22.9 5 Sudoeste 12 Sudoeste 0 -- -- 87
2020-09-17 08:00:00 21.8 7 Sudoeste 11 Sudoeste 0 -- -- 91
2020-09-17 07:00:00 20.9 5 Sur 8 Sudoeste 0 -- -- 89
2020-09-17 06:00:00 21.2 6 Sur 8 Sur 0 -- -- 82
2020-09-17 05:00:00 19.9 4 Sur 6 Sudoeste 0 -- -- 81
2020-09-17 04:00:00 20.4 3 Sudoeste 5 Sur 0 -- -- 85
2020-09-17 03:00:00 21.2 4 Sur 6 Sudoeste 0 -- -- 80
2020-09-17 02:00:00 21.5 2 Sudoeste 8 Oeste 0 -- -- 75
2020-09-17 01:00:00 22.1 4 Sudoeste 10 Sudoeste 0 -- -- 72
2020-09-17 00:00:00 22.2 6 Sudoeste 8 Oeste 0 -- -- 67
2020-09-16 23:00:00 21.6 4 Sudoeste 5 Sudoeste 0 -- -- 78
2020-09-16 22:00:00 22.3 0 Calma 4 Sudoeste 0 -- -- 73
2020-09-16 21:00:00 22.8 3 Norte 7 Nordeste 0 -- -- 70
2020-09-16 20:00:00 24.9 3 Norte 8 Norte 0 -- -- 65
2020-09-16 19:00:00 27 6 Norte 13 Noroeste 0 -- -- 57
2020-09-16 18:00:00 28.1 9 Norte 20 Norte 0 -- -- 50
2020-09-16 17:00:00 28.4 13 Norte 22 Norte 0 -- -- 47
2020-09-16 16:00:00 28.5 13 Norte 21 Norte 0 -- -- 51
2020-09-16 15:00:00 29.2 9 Norte 21 Norte 0 -- -- 49
2020-09-16 14:00:00 28.5 9 Noroeste 18 Noroeste 0 -- -- 54
2020-09-16 13:00:00 27.8 6 Nordeste 20 Sudoeste 0 -- -- 55
2020-09-16 12:00:00 29.1 9 Oeste 17 Sudoeste 0 -- -- 49
2020-09-16 11:00:00 28.6 4 Sudoeste 9 Sudoeste 0 -- -- 49
2020-09-16 10:00:00 27.1 3 Sur 5 Este 0 -- -- 49
2020-09-16 09:00:00 23.5 0 Calma 3 Sudoeste 0 -- -- 77
2020-09-16 08:00:00 20.7 0 Calma 4 Sudoeste 0 -- -- 85
2020-09-16 07:00:00 20.3 0 Calma 6 Sur 0 -- -- 81
2020-09-16 06:00:00 21.3 5 Sur 7 Sur 0 -- -- 73
2020-09-16 05:00:00 21.7 5 Sudoeste 9 Sur 0 -- -- 69
2020-09-16 04:00:00 21.6 6 Sudoeste 10 Sur 0 -- -- 64
2020-09-16 03:00:00 21.5 9 Sur 10 Sur 0 -- -- 68
2020-09-16 02:00:00 21.4 4 Sur 7 Sur 0 -- -- 79
2020-09-16 01:00:00 22.1 4 Sur 8 Sur 0 -- -- 78
2020-09-16 00:00:00 21.9 5 Sudoeste 6 Sur 0 -- -- 77
2020-09-15 23:00:00 21.7 5 Sur 6 Sur 0 -- -- 77
2020-09-15 22:00:00 22.3 -- -- -- -- 0 -- -- 76
2020-09-15 21:00:00 23.9 0 Calma 7 Oeste 0 -- -- 69
2020-09-15 20:00:00 25.2 5 Sudoeste 9 Sudoeste 0 -- -- 63
2020-09-15 19:00:00 26.7 4 Sudoeste 16 Sur 0 -- -- 54
2020-09-15 18:00:00 29.8 9 Sur 18 Sudoeste 0 -- -- 42
2020-09-15 17:00:00 30.1 12 Sudoeste 22 Sudoeste 0 -- -- 41
2020-09-15 16:00:00 30 15 Sur 22 Sudoeste 0 -- -- 46
2020-09-15 15:00:00 30.7 14 Sudoeste 26 Sudoeste 0 -- -- 43
2020-09-15 14:00:00 31.6 8 Sudoeste 22 Este 0 -- -- 37
2020-09-15 13:00:00 30.7 8 Sudeste 19 Nordeste 0 -- -- 40
2020-09-15 12:00:00 30.6 8 Este 20 Este 0 -- -- 39
2020-09-15 11:00:00 27.8 8 Nordeste 13 Nordeste 0 -- -- 50
2020-09-15 10:00:00 25.7 6 Nordeste 9 Nordeste 0 -- -- 70
2020-09-15 09:00:00 23.4 2 Este 4 Nordeste 0 -- -- 88
2020-09-15 08:00:00 19.7 0 Calma 4 Sudeste 0 -- -- 94
2020-09-15 07:00:00 19.7 2 Sudeste 5 Oeste 0 -- -- 94
2020-09-15 06:00:00 20 4 Sudoeste 6 Oeste 0 -- -- 93
2020-09-15 05:00:00 20.8 5 Sudoeste 6 Sudoeste 0 -- -- 93
2020-09-15 04:00:00 20.8 4 Sudoeste 9 Oeste 0 -- -- 93
2020-09-15 03:00:00 20.4 4 Sur 6 Sur 0 -- -- 92
2020-09-15 02:00:00 20.6 0 Calma 4 Sudoeste 0 -- -- 91
2020-09-15 01:00:00 20.8 2 Sudoeste 7 Oeste 0 -- -- 92
2020-09-15 00:00:00 20.8 4 Oeste 6 Oeste 0 -- -- 90
2020-09-14 23:00:00 21.8 2 Oeste 6 Oeste 0 -- -- 90
2020-09-14 22:00:00 22.2 3 Noroeste 5 Norte 0 -- -- 88
2020-09-14 21:00:00 23.4 2 Nordeste 10 Nordeste 0 -- -- 84
2020-09-14 20:00:00 24.7 7 Nordeste 13 Nordeste 0 -- -- 76
2020-09-14 19:00:00 26.7 12 Nordeste 20 Nordeste 0 -- -- 63
2020-09-14 18:00:00 28.5 12 Nordeste 22 Nordeste 0 -- -- 48
2020-09-14 17:00:00 28.5 15 Nordeste 23 Nordeste 0 -- -- 53
2020-09-14 16:00:00 29.2 13 Nordeste 21 Nordeste 0 -- -- 46
2020-09-14 15:00:00 29.2 13 Nordeste 21 Nordeste 0 -- -- 49
2020-09-14 14:00:00 29.2 12 Norte 22 Nordeste 0 -- -- 51
2020-09-14 13:00:00 28.2 11 Nordeste 18 Nordeste 0 -- -- 55
2020-09-14 12:00:00 27.7 10 Nordeste 18 Norte 0 -- -- 60
2020-09-14 11:00:00 26.9 10 Norte 17 Nordeste 0 -- -- 64
2020-09-14 10:00:00 25.5 6 Norte 13 Norte 0 -- -- 78
2020-09-14 09:00:00 23.7 0 Calma 4 Norte 0 -- -- 87
2020-09-14 08:00:00 20.7 0 Calma 4 Oeste 0 -- -- 91
2020-09-14 07:00:00 20 0 Calma 3 Sur 0 -- -- 92
2020-09-14 06:00:00 20.2 3 Sudoeste 7 Sudoeste 0 -- -- 92
2020-09-14 05:00:00 20.2 3 Sur 6 Oeste 0 -- -- 91
2020-09-14 04:00:00 19.8 4 Oeste 7 Oeste 0 -- -- 90
2020-09-14 03:00:00 20.2 2 Sudoeste 4 Sur 0 -- -- 88
2020-09-14 02:00:00 21 3 Sudoeste 7 Sudoeste 0 -- -- 87
2020-09-14 01:00:00 21.4 2 Nordeste 8 Este 0 -- -- 84
2020-09-14 00:00:00 22 2 Nordeste 6 Nordeste 0 -- -- 83
2020-09-13 23:00:00 21.1 2 Nordeste 5 Nordeste 0 -- -- 85
2020-09-13 22:00:00 22 4 Nordeste 6 Este 0 -- -- 80
2020-09-13 21:00:00 22.4 3 Oeste 4 Oeste 0 -- -- 78
2020-09-13 20:00:00 24.6 6 Nordeste 10 Nordeste 0 -- -- 69
2020-09-13 19:00:00 26.9 7 Nordeste 17 Nordeste 0 -- -- 60
2020-09-13 18:00:00 28.3 12 Nordeste 19 Norte 0 -- -- 47
2020-09-13 17:00:00 28.2 12 Nordeste 21 Nordeste 0 -- -- 54
2020-09-13 16:00:00 29 11 Norte 20 Noroeste 0 -- -- 45
2020-09-13 15:00:00 29.4 10 Nordeste 17 Norte 0 -- -- 46
2020-09-13 14:00:00 28.6 11 Norte 19 Norte 0 -- -- 48
2020-09-13 13:00:00 28.6 13 Norte 21 Noroeste 0 -- -- 47
2020-09-13 12:00:00 28.5 13 Norte 20 Nordeste 0 -- -- 52
2020-09-13 11:00:00 27.1 15 Nordeste 23 Nordeste 0 -- -- 56
2020-09-13 10:00:00 25.9 12 Norte 19 Norte 0 -- -- 66
2020-09-13 09:00:00 24.5 3 Norte 6 Norte 0 -- -- 77
2020-09-13 08:00:00 22 2 Nordeste 4 Nordeste 0 -- -- 85
2020-09-13 07:00:00 20.4 2 Oeste 4 Oeste 0 -- -- 90
2020-09-13 06:00:00 20.9 0 Calma 5 Noroeste 0 -- -- 90
2020-09-13 05:00:00 21.2 0 Calma 7 Norte 0 -- -- 91
2020-09-13 04:00:00 21.5 4 Nordeste 8 Nordeste 0 -- -- 91
2020-09-13 03:00:00 21.2 3 Norte 6 Nordeste 0 -- -- 91
2020-09-13 02:00:00 21.5 3 Norte 8 Norte 0 -- -- 90
2020-09-13 01:00:00 21.6 5 Norte 8 Norte 0 -- -- 90
2020-09-13 00:00:00 21.3 2 Norte 5 Norte 0 -- -- 88
2020-09-12 23:00:00 21.5 0 Calma 3 Norte 0 -- -- 88
2020-09-12 22:00:00 21.9 4 Norte 5 Norte 0 -- -- 85
2020-09-12 21:00:00 22.5 3 Norte 11 Norte 0 -- -- 83
2020-09-12 20:00:00 23.6 9 Norte 18 Norte 0 -- -- 78
2020-09-12 19:00:00 25 12 Norte 26 Norte 0 -- -- 70
2020-09-12 18:00:00 25.6 17 Norte 30 Noroeste 0 -- -- 65
2020-09-12 17:00:00 26 21 Norte 33 Noroeste 0 -- -- 61
2020-09-12 16:00:00 26.2 22 Norte 32 Norte 0 -- -- 58
2020-09-12 15:00:00 26.6 21 Norte 33 Norte 0 -- -- 54
2020-09-12 14:00:00 27.3 20 Norte 33 Norte 0 -- -- 56
2020-09-12 13:00:00 27.3 20 Norte 28 Norte 0 -- -- 56
2020-09-12 12:00:00 27 14 Noroeste 27 Norte 0 -- -- 64
2020-09-12 11:00:00 26.7 15 Norte 23 Norte 0 -- -- 59
2020-09-12 10:00:00 25.6 15 Norte 26 Norte 0 -- -- 65
2020-09-12 09:00:00 23.7 10 Norte 17 Norte 0 -- -- 74
2020-09-12 08:00:00 22 7 Norte 15 Norte 0 -- -- 81
2020-09-12 07:00:00 22.2 10 Norte 22 Norte 0 -- -- 82
2020-09-12 06:00:00 22.6 14 Norte 21 Norte 0 -- -- 84
2020-09-12 05:00:00 22.7 10 Norte 22 Norte 0 -- -- 81
2020-09-12 04:00:00 22.8 13 Norte 22 Norte 0 -- -- 78
2020-09-12 03:00:00 22.3 13 Norte 19 Norte 0 -- -- 80
2020-09-12 02:00:00 21.2 8 Norte 10 Norte 0 -- -- 86
2020-09-12 01:00:00 21.6 8 Norte 16 Norte 0 -- -- 84
2020-09-12 00:00:00 22.1 9 Norte 18 Norte 0 -- -- 81
2020-09-11 23:00:00 22.6 10 Norte 23 Norte 0 -- -- 80
2020-09-11 22:00:00 22.8 11 Norte 23 Nordeste 0 -- -- 77
2020-09-11 21:00:00 22.8 13 Norte 23 Norte 0 -- -- 74
2020-09-11 20:00:00 23.1 17 Norte 33 Norte 0 -- -- 75
2020-09-11 19:00:00 24 19 Norte 32 Norte 0 -- -- 71
2020-09-11 18:00:00 24.2 22 Norte 35 Norte 0 -- -- 72
2020-09-11 17:00:00 25 23 Norte 35 Norte 0 -- -- 64
2020-09-11 16:00:00 24.4 27 Norte 41 Norte 0 -- -- 69
2020-09-11 15:00:00 24.8 28 Norte 46 Norte 0 -- -- 63
2020-09-11 14:00:00 25.7 30 Norte 44 Norte 0 -- -- 61
2020-09-11 13:00:00 25.5 29 Norte 42 Norte 0 -- -- 60
2020-09-11 12:00:00 24.9 26 Norte 39 Noroeste 0 -- -- 65
2020-09-11 11:00:00 24.8 19 Noroeste 36 Norte 0 -- -- 74
2020-09-11 10:00:00 24.7 20 Norte 34 Norte 0 -- -- 69
2020-09-11 09:00:00 23.1 21 Norte 35 Norte 0 -- -- 72
2020-09-11 08:00:00 21.5 17 Norte 29 Norte 0 -- -- 80
2020-09-11 07:00:00 21.1 16 Norte 31 Norte 0 -- -- 83
2020-09-11 06:00:00 20.4 10 Norte 17 Norte 0 -- -- 85
2020-09-11 05:00:00 20.1 2 Oeste 18 Oeste 0 -- -- 87
2020-09-11 04:00:00 19.8 10 Noroeste 36 Noroeste 0 -- -- 85
2020-09-11 03:00:00 20.4 10 Norte 18 Norte 0 -- -- 79
2020-09-11 02:00:00 20.4 13 Norte 22 Noroeste 0 -- -- 81
2020-09-11 01:00:00 20 12 Noroeste 21 Noroeste 0 -- -- 88
2020-09-11 00:00:00 19.4 6 Norte 11 Norte 0 -- -- 91
2020-09-10 23:00:00 19.5 5 Noroeste 8 Noroeste 0 -- -- 89
2020-09-10 22:00:00 19.3 6 Noroeste 28 Norte 0.4 -- -- 86
2020-09-10 21:00:00 20.1 10 Noroeste 28 Noroeste 3 -- -- 86
2020-09-10 20:00:00 21.3 11 Noroeste 24 Norte 0.4 -- -- 83
2020-09-10 19:00:00 23.1 17 Norte 26 Noroeste 0 -- -- 71
2020-09-10 18:00:00 24 17 Norte 31 Norte 0 -- -- 67
2020-09-10 17:00:00 24.4 20 Norte 32 Norte 0 -- -- 66
2020-09-10 16:00:00 24 21 Norte 29 Norte 0 -- -- 65
2020-09-10 15:00:00 24 19 Norte 31 Noroeste 0 -- -- 67
2020-09-10 14:00:00 24.5 19 Norte 30 Norte 0 -- -- 69
2020-09-10 13:00:00 23.9 16 Norte 25 Noroeste 0 -- -- 72
2020-09-10 12:00:00 22 11 Norte 23 Norte 0 -- -- 84
2020-09-10 11:00:00 21.5 9 Norte 15 Norte 0.2 -- -- 89
2020-09-10 10:00:00 20.9 9 Norte 29 Noroeste 1.4 -- -- 89
2020-09-10 09:00:00 22 16 Norte 28 Norte 0 -- -- 80
2020-09-10 08:00:00 20.2 8 Norte 16 Nordeste 0 -- -- 87
2020-09-10 07:00:00 19.4 2 Oeste 5 Sudoeste 0 -- -- 85
2020-09-10 06:00:00 19.2 2 Sudoeste 8 Oeste 0 -- -- 87
2020-09-10 05:00:00 19.1 4 Sudoeste 6 Sudoeste 0 -- -- 87
2020-09-10 04:00:00 19.3 3 Oeste 4 Oeste 0 -- -- 87
2020-09-10 03:00:00 19.8 0 Calma -- -- 0 -- -- 86
2020-09-10 02:00:00 19.8 0 Calma 4 Sudoeste 0 -- -- 85
2020-09-10 01:00:00 19.6 2 Sudoeste 5 Sudoeste 0 -- -- 82
2020-09-10 00:00:00 19.5 2 Sudoeste 4 Oeste 0 -- -- 83
2020-09-09 23:00:00 19.1 5 Oeste 8 Oeste 0 -- -- 84
2020-09-09 22:00:00 20.2 0 Calma 5 Este 0 -- -- 80
2020-09-09 21:00:00 21.5 0 Calma 10 Sudoeste 0 -- -- 74
2020-09-09 20:00:00 22.8 10 Sudoeste 16 Sudoeste 0 -- -- 67
2020-09-09 19:00:00 25.2 13 Sudoeste 23 Este 0 -- -- 58
2020-09-09 18:00:00 25.9 12 Sudeste 26 Este 0 -- -- 55
2020-09-09 17:00:00 24.4 15 Este 29 Este 0 -- -- 61
2020-09-09 16:00:00 24.7 15 Este 36 Nordeste 0 -- -- 59
2020-09-09 15:00:00 25.9 19 Nordeste 29 Nordeste 0 -- -- 57
2020-09-09 14:00:00 25.8 15 Norte 23 Noroeste 0 -- -- 59
2020-09-09 13:00:00 27.7 6 Noroeste 18 Sudoeste 0 -- -- 54
2020-09-09 12:00:00 26.4 10 Sur 23 Sur 0 -- -- 55
2020-09-09 11:00:00 25.1 7 Sur 13 Sur 0 -- -- 61
2020-09-09 10:00:00 23.9 2 Oeste 5 Oeste 0 -- -- 68
2020-09-09 09:00:00 22.7 0 Calma 4 Este 0 -- -- 77
2020-09-09 08:00:00 19.8 0 Calma 9 Sur 0 -- -- 84
2020-09-09 07:00:00 18.9 3 Sudoeste 9 Sudoeste 0 -- -- 87
2020-09-09 06:00:00 17.9 5 Sudoeste 9 Sur 0 -- -- 89
2020-09-09 05:00:00 18.2 3 Sudoeste 7 Sudoeste 0 -- -- 90
2020-09-09 04:00:00 17.8 3 Sur 6 Sur 0 -- -- 91
2020-09-09 03:00:00 18.2 0 Calma 9 Norte 0 -- -- 91
2020-09-09 02:00:00 18.7 4 Noroeste 11 Sur 0 -- -- 89
2020-09-09 01:00:00 19.2 4 Sur 8 Sur 0 -- -- 88
2020-09-09 00:00:00 19.5 7 Sur 10 Sudoeste 0 -- -- 87
2020-09-08 23:00:00 19.8 4 Sudoeste 8 Sudoeste 0 -- -- 86
2020-09-08 22:00:00 20.3 0 Calma 4 Sur 0 -- -- 81
2020-09-08 21:00:00 21.5 3 Norte 8 Nordeste 0 -- -- 74
2020-09-08 20:00:00 22.4 5 Nordeste 20 Nordeste 0 -- -- 68
2020-09-08 19:00:00 23.6 12 Nordeste 23 Norte 0 -- -- 57
2020-09-08 18:00:00 24.5 11 Nordeste 20 Este 0 -- -- 56
2020-09-08 17:00:00 24.7 9 Nordeste 14 Nordeste 0 -- -- 56
2020-09-08 16:00:00 25.3 6 Sudeste 19 Este 0 -- -- 55
2020-09-08 15:00:00 26 13 Este 27 Nordeste 0 -- -- 50
2020-09-08 14:00:00 25.2 17 Nordeste 29 Nordeste 0 -- -- 53
2020-09-08 13:00:00 25.8 9 Este 19 Nordeste 0 -- -- 49
2020-09-08 12:00:00 22.7 10 Norte 31 Este 0 -- -- 68
2020-09-08 11:00:00 24.4 3 Sudeste 8 Este 0 -- -- 56
2020-09-08 10:00:00 23.2 4 Este 12 Norte 0 -- -- 56
2020-09-08 09:00:00 21.8 2 Oeste 19 Nordeste 0 -- -- 59
2020-09-08 08:00:00 20.3 11 Nordeste 18 Nordeste 0 -- -- 64
2020-09-08 07:00:00 20 5 Norte 16 Nordeste 0 -- -- 66
2020-09-08 06:00:00 20.6 11 Nordeste 20 Nordeste 0 -- -- 65
2020-09-08 05:00:00 21.3 9 Norte 22 Nordeste 0 -- -- 59
2020-09-08 04:00:00 21.5 15 Norte 28 Norte 0 -- -- 59
2020-09-08 03:00:00 21.5 17 Norte 32 Norte 0 -- -- 61
2020-09-08 02:00:00 21.7 20 Norte 36 Nordeste 0 -- -- 56
2020-09-08 01:00:00 21.5 15 Norte 35 Norte 0 -- -- 54
2020-09-08 00:00:00 21.4 18 Norte 28 Norte 0 -- -- 53
2020-09-07 23:00:00 19.9 12 Nordeste 22 Nordeste 0.2 -- -- 62
2020-09-07 22:00:00 20.3 13 Nordeste 19 Norte 0 -- -- 59
2020-09-07 21:00:00 19.7 9 Nordeste 19 Nordeste 0 -- -- 60
2020-09-07 20:00:00 19.6 9 Nordeste 25 Norte 0 -- -- 62
2020-09-07 19:00:00 20 16 Norte 29 Norte 0 -- -- 60
2020-09-07 18:00:00 19.8 17 Norte 33 Nordeste 0 -- -- 63
2020-09-07 17:00:00 19.1 17 Norte 28 Nordeste 0.4 -- -- 70
2020-09-07 16:00:00 19.6 18 Norte 28 Norte 0 -- -- 68
2020-09-07 15:00:00 19.9 17 Nordeste 27 Nordeste 0 -- -- 71
2020-09-07 14:00:00 19.2 9 Norte 19 Norte 0.4 -- -- 86
2020-09-07 13:00:00 18.2 7 Nordeste 16 Norte 1 -- -- 90
2020-09-07 12:00:00 16.9 10 Norte 22 Nordeste 3.8 -- -- 91
2020-09-07 11:00:00 17 9 Este 21 Nordeste 4.4 -- -- 93
2020-09-07 10:00:00 16.5 12 Nordeste 22 Nordeste 7 -- -- 92
2020-09-07 09:00:00 17.1 12 Norte 37 Norte 3.8 -- -- 90
2020-09-07 08:00:00 18.2 13 Norte 26 Norte 0.4 -- -- 90
2020-09-07 07:00:00 18.2 17 Nordeste 36 Nordeste 1 -- -- 92
2020-09-07 06:00:00 17.7 22 Nordeste 43 Nordeste 6 -- -- 91
2020-09-07 05:00:00 18.8 30 Norte 54 Norte 0.4 -- -- 81
2020-09-07 04:00:00 22.2 17 Nordeste 28 Nordeste 0 -- -- 62
2020-09-07 03:00:00 22.6 16 Nordeste 28 Nordeste 0 -- -- 62
2020-09-07 02:00:00 22.7 17 Nordeste 27 Nordeste 0 -- -- 65
2020-09-07 01:00:00 22.8 12 Nordeste 20 Norte 0 -- -- 69
2020-09-07 00:00:00 22.1 7 Nordeste 12 Nordeste 0 -- -- 76
2020-09-06 23:00:00 21.9 6 Nordeste 12 Nordeste 0 -- -- 75
2020-09-06 22:00:00 22 0 Calma 5 Nordeste 0 -- -- 74
2020-09-06 21:00:00 22.4 4 Nordeste 17 Nordeste 0 -- -- 72
2020-09-06 20:00:00 23.2 12 Nordeste 22 Nordeste 0 -- -- 69
2020-09-06 19:00:00 24.3 17 Nordeste 25 Nordeste 0 -- -- 66
2020-09-06 18:00:00 25 15 Nordeste 31 Nordeste 0 -- -- 63
2020-09-06 17:00:00 25.8 17 Nordeste 31 Norte 0 -- -- 60
2020-09-06 16:00:00 25.8 20 Norte 35 Norte 0 -- -- 58
2020-09-06 15:00:00 26.6 19 Norte 33 Nordeste 0 -- -- 56
2020-09-06 14:00:00 25.8 25 Norte 37 Nordeste 0 -- -- 59
2020-09-06 13:00:00 25.8 25 Norte 39 Norte 0 -- -- 57
2020-09-06 12:00:00 26 23 Norte 37 Nordeste 0 -- -- 58
2020-09-06 11:00:00 25.7 25 Norte 36 Norte 0 -- -- 61
2020-09-06 10:00:00 25.5 21 Norte 30 Norte 0 -- -- 62
2020-09-06 09:00:00 24.3 3 Este 5 Nordeste 0 -- -- 72
2020-09-06 08:00:00 20.7 2 Oeste 5 Sudoeste 0 -- -- 86
2020-09-06 07:00:00 19.8 2 Sudoeste 5 Oeste 0 -- -- 89
2020-09-06 06:00:00 19.2 4 Oeste 6 Sudoeste 0 -- -- 87
2020-09-06 05:00:00 19.7 4 Sudoeste 5 Sudoeste 0 -- -- 86
2020-09-06 04:00:00 19.5 3 Sudoeste 4 Sudoeste 0 -- -- 84
2020-09-06 03:00:00 19.6 2 Sur 5 Sudoeste 0 -- -- 85
2020-09-06 02:00:00 19.5 2 Sudoeste 5 Oeste 0 -- -- 87
2020-09-06 01:00:00 19.7 2 Sur 4 Sudoeste 0 -- -- 85
2020-09-06 00:00:00 19.6 2 Oeste 6 Sur 0 -- -- 84
2020-09-05 23:00:00 19.8 3 Sur 4 Sur 0 -- -- 84
2020-09-05 22:00:00 20.9 2 Sudoeste 4 Sudoeste 0 -- -- 80
2020-09-05 21:00:00 22 0 Calma 8 Nordeste 0 -- -- 74
2020-09-05 20:00:00 23.4 7 Nordeste 13 Nordeste 0 -- -- 71
2020-09-05 19:00:00 24.2 9 Nordeste 20 Este 0 -- -- 68
2020-09-05 18:00:00 25.3 10 Nordeste 24 Este 0 -- -- 61
2020-09-05 17:00:00 26.6 10 Nordeste 18 Nordeste 0 -- -- 56
2020-09-05 16:00:00 24.9 12 Nordeste 24 Nordeste 0 -- -- 62
2020-09-05 15:00:00 24.9 17 Nordeste 29 Nordeste 0 -- -- 63
2020-09-05 14:00:00 25.5 17 Nordeste 32 Nordeste 0 -- -- 63
2020-09-05 13:00:00 25.5 16 Nordeste 30 Nordeste 0 -- -- 62
2020-09-05 12:00:00 25.5 10 Nordeste 26 Este 0 -- -- 62
2020-09-05 11:00:00 25.3 15 Nordeste 24 Nordeste 0 -- -- 61
2020-09-05 10:00:00 25 10 Nordeste 17 Norte 0 -- -- 61
2020-09-05 09:00:00 24.4 0 Calma 5 Norte 0 -- -- 63
2020-09-05 08:00:00 19.5 0 Calma 2 Oeste 0 -- -- 81
2020-09-05 07:00:00 18 2 Sudoeste 5 Oeste 0 -- -- 84
2020-09-05 06:00:00 18.3 2 Sudoeste 4 Oeste 0 -- -- 83
2020-09-05 05:00:00 18.8 0 Calma 4 Sudoeste 0 -- -- 83
2020-09-05 04:00:00 18.7 2 Sudoeste 6 Oeste 0 -- -- 82
2020-09-05 03:00:00 19.1 2 Sudoeste 4 Oeste 0 -- -- 80
2020-09-05 02:00:00 19.1 0 Calma 4 Sudoeste 0 -- -- 81
2020-09-05 01:00:00 20.1 3 Sudoeste 8 Sur 0 -- -- 76
2020-09-05 00:00:00 20.3 4 Sur 12 Sur 0 -- -- 74
2020-09-04 23:00:00 20.2 5 Sur 8 Sudeste 0 -- -- 74
2020-09-04 22:00:00 21.6 6 Sur 8 Sur 0 -- -- 70
2020-09-04 21:00:00 22.6 6 Sudeste 16 Sudeste 0 -- -- 66
2020-09-04 20:00:00 24.2 11 Sudeste 24 Este 0 -- -- 61
2020-09-04 19:00:00 25.9 8 Sudoeste 20 Sudoeste 0 -- -- 59
2020-09-04 18:00:00 26.2 15 Sudoeste 22 Sur 0 -- -- 58
2020-09-04 17:00:00 26.5 10 Este 27 Este 0 -- -- 57
2020-09-04 16:00:00 26.7 10 Norte 19 Nordeste 0 -- -- 56
2020-09-04 15:00:00 26 6 Noroeste 15 Este 0 -- -- 58
2020-09-04 14:00:00 25.5 6 Nordeste 11 Norte 0 -- -- 60
2020-09-04 13:00:00 26.4 8 Noroeste 16 Norte 0 -- -- 56
2020-09-04 12:00:00 25.7 10 Sudoeste 17 Oeste 0 -- -- 57
2020-09-04 11:00:00 27.4 4 Norte 14 Sudeste 0 -- -- 51
2020-09-04 10:00:00 26.6 4 Nordeste 10 Este 0 -- -- 54
2020-09-04 09:00:00 24.5 4 Sur 9 Sudeste 0 -- -- 68
2020-09-04 08:00:00 20.4 4 Sur 7 Sur 0 -- -- 80
2020-09-04 07:00:00 18.9 3 Sur 6 Sur 0 -- -- 83
2020-09-04 06:00:00 19.4 3 Sudoeste 4 Sudoeste 0 -- -- 79
2020-09-04 05:00:00 19.4 0 Calma 3 Sudoeste 0 -- -- 80
2020-09-04 04:00:00 19.6 0 Calma 3 Sudoeste 0 -- -- 77
2020-09-04 03:00:00 19.5 2 Sur 5 Sudoeste 0 -- -- 74
2020-09-04 02:00:00 20 3 Sudoeste 5 Sudoeste 0 -- -- 73
2020-09-04 01:00:00 20.1 4 Sudoeste 6 Sudoeste 0 -- -- 71
2020-09-04 00:00:00 20.4 4 Sudoeste 7 Sur 0 -- -- 70
2020-09-03 23:00:00 21 4 Sur 6 Sur 0 -- -- 68
2020-09-03 22:00:00 21.1 3 Sur 6 Sur 0 -- -- 65
2020-09-03 21:00:00 22.3 2 Oeste 5 Norte 0 -- -- 61
2020-09-03 20:00:00 24.5 5 Norte 14 Norte 0 -- -- 53
2020-09-03 19:00:00 26.5 8 Norte 26 Noroeste 0 -- -- 49
2020-09-03 18:00:00 26.9 12 Norte 21 Norte 0 -- -- 48
2020-09-03 17:00:00 27.5 8 Norte 24 Norte 0 -- -- 46
2020-09-03 16:00:00 27.4 14 Norte 23 Norte 0 -- -- 47
2020-09-03 15:00:00 27.2 10 Norte 23 Norte 0 -- -- 48
2020-09-03 14:00:00 26.6 12 Nordeste 24 Nordeste 0 -- -- 49
2020-09-03 13:00:00 27.1 11 Norte 21 Norte 0 -- -- 48
2020-09-03 12:00:00 26.3 12 Norte 27 Norte 0 -- -- 50
2020-09-03 11:00:00 25.4 15 Norte 26 Noroeste 0 -- -- 54
2020-09-03 10:00:00 25 13 Norte 21 Norte 0 -- -- 55
2020-09-03 09:00:00 24.7 2 Norte 8 Norte 0 -- -- 61
2020-09-03 08:00:00 21 0 Calma 4 Oeste 0 -- -- 70
2020-09-03 07:00:00 19 3 Sudoeste 6 Sudoeste 0 -- -- 75
2020-09-03 06:00:00 19.3 5 Sudoeste 6 Sudoeste 0 -- -- 73
2020-09-03 05:00:00 19.2 3 Sudoeste 9 Sudoeste 0 -- -- 71
2020-09-03 04:00:00 19.4 6 Sudoeste 9 Sudoeste 0 -- -- 71
2020-09-03 03:00:00 19.5 5 Sudoeste 8 Sudoeste 0 -- -- 71
2020-09-03 02:00:00 18.9 6 Sudoeste 8 Sudoeste 0 -- -- 72
2020-09-03 01:00:00 19 3 Sudoeste 5 Sudoeste 0 -- -- 71
2020-09-03 00:00:00 18.9 3 Oeste 4 Sudoeste 0 -- -- 71
2020-09-02 23:00:00 19.1 2 Sudoeste 3 Sudoeste 0 -- -- 71
2020-09-02 22:00:00 20 0 Calma 2 Oeste 0 -- -- 67
2020-09-02 21:00:00 21.6 0 Calma 11 Nordeste 0 -- -- 59
2020-09-02 20:00:00 22.9 9 Nordeste 19 Nordeste 0 -- -- 54
2020-09-02 19:00:00 23.9 14 Nordeste 25 Nordeste 0 -- -- 50
2020-09-02 18:00:00 24.4 17 Nordeste 32 Nordeste 0 -- -- 48
2020-09-02 17:00:00 24.5 20 Nordeste 35 Nordeste 0 -- -- 47
2020-09-02 16:00:00 24.6 23 Nordeste 39 Nordeste 0 -- -- 45
2020-09-02 15:00:00 25.2 23 Norte 42 Norte 0 -- -- 46
2020-09-02 14:00:00 24.9 26 Norte 40 Norte 0 -- -- 44
2020-09-02 13:00:00 24.3 25 Norte 40 Norte 0 -- -- 46
2020-09-02 12:00:00 23.7 19 Norte 35 Nordeste 0 -- -- 50
2020-09-02 11:00:00 23.4 24 Norte 40 Norte 0 -- -- 60
2020-09-02 10:00:00 23.8 22 Norte 33 Norte 0 -- -- 56
2020-09-02 09:00:00 23.1 15 Norte 31 Norte 0 -- -- 50
2020-09-02 08:00:00 21.8 12 Norte 24 Norte 0 -- -- 63
2020-09-02 07:00:00 19.3 2 Sudoeste 6 Oeste 0 -- -- 80
2020-09-02 06:00:00 19.1 3 Sudoeste 5 Sudeste 0 -- -- 80
2020-09-02 05:00:00 18.8 0 Calma 5 Oeste 0 -- -- 80
2020-09-02 04:00:00 19.3 0 Calma 4 Sudoeste 0 -- -- 78
2020-09-02 03:00:00 19.6 3 Sur 5 Sudoeste 0 -- -- 77
2020-09-02 02:00:00 19.7 4 Sudoeste 5 Sudoeste 0 -- -- 78
2020-09-02 01:00:00 20.1 3 Sudoeste 6 Oeste 0 -- -- 77
2020-09-02 00:00:00 19.5 3 Sudoeste 5 Sudeste 0 -- -- 79
2020-09-01 23:00:00 20.7 3 Sur 5 Sudeste 0 -- -- 75
2020-09-01 22:00:00 21.3 2 Sudoeste 4 Sudoeste 0 -- -- 71
2020-09-01 21:00:00 22.5 4 Nordeste 8 Nordeste 0 -- -- 66
2020-09-01 20:00:00 23.4 6 Nordeste 12 Norte 0 -- -- 61
2020-09-01 19:00:00 25 7 Norte 17 Nordeste 0 -- -- 56
2020-09-01 18:00:00 24.9 9 Nordeste 20 Nordeste 0 -- -- 54
2020-09-01 17:00:00 26.2 12 Norte 20 Norte 0 -- -- 45
2020-09-01 16:00:00 25.4 11 Norte 23 Norte 0 -- -- 48
2020-09-01 15:00:00 25.2 14 Norte 23 Norte 0 -- -- 49
2020-09-01 14:00:00 26.9 7 Noroeste 16 Sudoeste 0 -- -- 50
2020-09-01 13:00:00 27.1 7 Oeste 35 Norte 0 -- -- 47
2020-09-01 12:00:00 26.1 9 Noroeste 18 Oeste 0 -- -- 44
2020-09-01 11:00:00 25.8 10 Sudoeste 16 Sudoeste 0 -- -- 43
2020-09-01 10:00:00 24.6 5 Oeste 14 Oeste 0 -- -- 49
2020-09-01 09:00:00 24.1 2 Sudoeste 9 Sudoeste 0 -- -- 59
2020-09-01 08:00:00 19.5 8 Sudoeste 11 Oeste 0 -- -- 71
2020-09-01 07:00:00 18.4 6 Sudoeste 11 Sudoeste 0 -- -- 75
2020-09-01 06:00:00 18 8 Sudoeste 12 Oeste 0 -- -- 80
2020-09-01 05:00:00 19.1 9 Oeste 14 Oeste 0 -- -- 77
2020-09-01 04:00:00 19.3 4 Sudoeste 6 Sudoeste 0 -- -- 83
2020-09-01 03:00:00 20 5 Sudoeste 19 Sudoeste 0.6 -- -- 76
2020-09-01 02:00:00 20.7 13 Sudoeste 21 Sudoeste 0 -- -- 68
2020-09-01 01:00:00 20.1 14 Sur 18 Sudoeste 0 -- -- 69
2020-09-01 00:00:00 20 10 Sur 15 Sur 0 -- -- 68
2020-08-31 23:00:00 19.8 10 Sur 12 Sur 0 -- -- 69
2020-08-31 22:00:00 20.1 5 Sur 10 Sur 0 -- -- 67
2020-08-31 21:00:00 20.6 8 Sudoeste 17 Sur 0 -- -- 64
2020-08-31 20:00:00 22.2 13 Sur 24 Sudoeste 0 -- -- 58
2020-08-31 19:00:00 24.2 14 Sur 23 Sur 0 -- -- 53
2020-08-31 18:00:00 23.8 2 Nordeste 19 Nordeste 0 -- -- 50
2020-08-31 17:00:00 24.2 12 Norte 19 Norte 0 -- -- 49
2020-08-31 16:00:00 25.1 9 Noroeste 26 Noroeste 0 -- -- 45
2020-08-31 15:00:00 25.1 9 Norte 23 Norte 0 -- -- 45
2020-08-31 14:00:00 24.8 13 Norte 27 Norte 0 -- -- 45
2020-08-31 13:00:00 23.1 18 Norte 30 Nordeste 0 -- -- 51
2020-08-31 12:00:00 22.8 20 Norte 31 Nordeste 0 -- -- 49
2020-08-31 11:00:00 22.2 22 Nordeste 37 Nordeste 0 -- -- 50
2020-08-31 10:00:00 21.5 24 Nordeste 37 Nordeste 0 -- -- 55
2020-08-31 09:00:00 21.5 19 Norte 31 Norte 0 -- -- 60
2020-08-31 08:00:00 19.9 18 Norte 31 Norte 0 -- -- 64
2020-08-31 07:00:00 17.9 12 Norte 21 Norte 0 -- -- 79
2020-08-31 06:00:00 16.1 0 Calma 6 Norte 0 -- -- 86
2020-08-31 05:00:00 17.2 3 Norte 37 Norte 0.2 -- -- 77
2020-08-31 04:00:00 17.2 19 Norte 33 Norte 8.4 -- -- 81
2020-08-31 03:00:00 16.8 15 Norte 48 Norte 0.8 -- -- 89
2020-08-31 02:00:00 21.1 7 Este 15 Nordeste 0 -- -- 61
2020-08-31 01:00:00 20.8 10 Nordeste 19 Nordeste 0 -- -- 66
2020-08-31 00:00:00 20.3 9 Nordeste 17 Nordeste 0 -- -- 68
2020-08-30 23:00:00 20.4 10 Nordeste 19 Nordeste 0 -- -- 67
2020-08-30 22:00:00 20.6 9 Este 17 Este 0 -- -- 66
2020-08-30 21:00:00 21.2 9 Este 24 Nordeste 0 -- -- 63
2020-08-30 20:00:00 22.3 14 Este 27 Nordeste 0 -- -- 59
2020-08-30 19:00:00 22.9 17 Este 30 Este 0 -- -- 56
2020-08-30 18:00:00 22.9 21 Este 31 Nordeste 0 -- -- 57
2020-08-30 17:00:00 23 13 Nordeste 26 Este 0 -- -- 56
2020-08-30 16:00:00 23.5 17 Nordeste 28 Este 0 -- -- 55
2020-08-30 15:00:00 23.6 14 Nordeste 26 Nordeste 0 -- -- 54
2020-08-30 14:00:00 23.1 12 Nordeste 27 Nordeste 0 -- -- 56
2020-08-30 13:00:00 24 14 Nordeste 24 Nordeste 0 -- -- 53
2020-08-30 12:00:00 22.7 14 Nordeste 23 Norte 0 -- -- 56
2020-08-30 11:00:00 23.1 14 Norte 27 Norte 0 -- -- 56
2020-08-30 10:00:00 22.9 16 Norte 30 Nordeste 0 -- -- 61
2020-08-30 09:00:00 22.7 11 Norte 19 Norte 0 -- -- 56
2020-08-30 08:00:00 20.5 4 Norte 10 Norte 0 -- -- 69
2020-08-30 07:00:00 19 8 Norte 20 Norte 0 -- -- 74
2020-08-30 06:00:00 20.4 10 Norte 23 Norte 0 -- -- 66
2020-08-30 05:00:00 18.9 5 Nordeste 11 Norte 0 -- -- 77
2020-08-30 04:00:00 19.7 3 Noroeste 15 Noroeste 0 -- -- 73
2020-08-30 03:00:00 20.4 9 Noroeste 14 Noroeste 0 -- -- 72
2020-08-30 02:00:00 20.7 8 Noroeste 23 Nordeste 0 -- -- 75
2020-08-30 01:00:00 21 12 Norte 27 Norte 0 -- -- 74
2020-08-30 00:00:00 20.4 8 Norte 20 Norte 0.2 -- -- 82
2020-08-29 23:00:00 21.4 11 Nordeste 30 Nordeste 0 -- -- 76
2020-08-29 22:00:00 21.3 17 Norte 33 Norte 0 -- -- 77
2020-08-29 21:00:00 21.2 21 Norte 35 Norte 0 -- -- 82
2020-08-29 20:00:00 21.2 18 Norte 33 Norte 0 -- -- 84
2020-08-29 19:00:00 21.8 19 Norte 38 Norte 0 -- -- 81
2020-08-29 18:00:00 22 15 Norte 35 Nordeste 0 -- -- 82
2020-08-29 17:00:00 22.6 20 Norte 36 Norte 0 -- -- 79
2020-08-29 16:00:00 22.5 27 Norte 45 Norte 0 -- -- 84
2020-08-29 15:00:00 23.6 16 Nordeste 30 Nordeste 0 -- -- 81
2020-08-29 14:00:00 22.3 17 Nordeste 34 Nordeste 0 -- -- 85
2020-08-29 13:00:00 22.1 17 Nordeste 33 Nordeste 0.2 -- -- 87
2020-08-29 12:00:00 22.4 19 Nordeste 36 Nordeste 1.2 -- -- 87
2020-08-29 11:00:00 22.8 13 Nordeste 36 Nordeste 0 -- -- 89
2020-08-29 10:00:00 22.8 16 Nordeste 32 Nordeste 1 -- -- 90
2020-08-29 09:00:00 23.2 12 Nordeste 30 Nordeste 0 -- -- 88
2020-08-29 08:00:00 23.2 12 Nordeste 30 Nordeste 0 -- -- 89
2020-08-29 07:00:00 23 15 Nordeste 38 Nordeste 0.2 -- -- 91
2020-08-29 06:00:00 22.8 22 Nordeste 39 Nordeste 3.6 -- -- 90
2020-08-29 05:00:00 24.1 18 Nordeste 37 Nordeste 0 -- -- 85
2020-08-29 04:00:00 24.1 5 Norte 17 Este 0 -- -- 87
2020-08-29 03:00:00 24.9 12 Este 22 Este 0 -- -- 84
2020-08-29 02:00:00 24.9 10 Este 22 Este 0 -- -- 85
2020-08-29 01:00:00 25.1 18 Este 24 Este 0 -- -- 85
2020-08-29 00:00:00 25 3 Sudeste 18 Este 0 -- -- 85
2020-08-28 23:00:00 25.4 9 Este 26 Este 0 -- -- 84
2020-08-28 22:00:00 25.5 13 Sudeste 20 Este 0 -- -- 82
2020-08-28 21:00:00 26.4 9 Sudeste 16 Sudoeste 0 -- -- 66
2020-08-28 20:00:00 28.5 12 Sur 19 Sudeste 0 -- -- 51
2020-08-28 19:00:00 30.6 14 Sudeste 27 Sudoeste 0 -- -- 47
2020-08-28 18:00:00 31.4 18 Sudoeste 28 Sur 0 -- -- 40
2020-08-28 17:00:00 31.2 20 Sudoeste 30 Sudoeste 0 -- -- 48
2020-08-28 16:00:00 30.8 23 Sur 36 Sur 0 -- -- 49
2020-08-28 15:00:00 31.1 22 Sur 38 Sur 0 -- -- 50
2020-08-28 14:00:00 31.1 23 Sur 37 Sudoeste 0 -- -- 46
2020-08-28 13:00:00 31 23 Sur 33 Sur 0 -- -- 47
2020-08-28 12:00:00 30.5 23 Sur 33 Sudoeste 0 -- -- 50
2020-08-28 11:00:00 29.3 21 Sudoeste 30 Sur 0 -- -- 54
2020-08-28 10:00:00 27.7 17 Sudoeste 24 Sur 0 -- -- 64
2020-08-28 09:00:00 25.9 11 Sur 15 Sur 0 -- -- 82
2020-08-28 08:00:00 23.2 12 Sur 14 Sur 0 -- -- 91
2020-08-28 07:00:00 22.6 4 Sur 14 Sur 0 -- -- 91
2020-08-28 06:00:00 22.7 10 Sur 14 Sur 0 -- -- 92
2020-08-28 05:00:00 22.7 10 Sudoeste 12 Sur 0 -- -- 92
2020-08-28 04:00:00 22.9 9 Sur 10 Sur 0 -- -- 92
2020-08-28 03:00:00 23.3 7 Sudeste 8 Sudeste 0 -- -- 91
2020-08-28 02:00:00 23.8 3 Sur 6 Sur 0 -- -- 90
2020-08-28 01:00:00 23.9 0 Calma 13 Sur 0 -- -- 88
2020-08-28 00:00:00 24.4 6 Sur 13 Sudoeste 0 -- -- 87
2020-08-27 23:00:00 24.7 10 Sur 15 Sur 0 -- -- 84
2020-08-27 22:00:00 25 8 Sur 14 Sur 0 -- -- 82
2020-08-27 21:00:00 25.6 10 Sur 21 Sur 0 -- -- 80
2020-08-27 20:00:00 27.1 13 Sudoeste 24 Sur 0 -- -- 72
2020-08-27 19:00:00 28.9 16 Sudoeste 25 Sudoeste 0 -- -- 63
2020-08-27 18:00:00 30.7 15 Sur 24 Sudoeste 0 -- -- 56
2020-08-27 17:00:00 31.8 12 Sudeste 24 Nordeste 0 -- -- 50
2020-08-27 16:00:00 31.1 15 Nordeste 23 Nordeste 0 -- -- 58
2020-08-27 15:00:00 31.6 12 Nordeste 23 Norte 0 -- -- 57
2020-08-27 14:00:00 31.9 13 Norte 21 Norte 0 -- -- 56
2020-08-27 13:00:00 31.1 12 Nordeste 21 Nordeste 0 -- -- 57
2020-08-27 12:00:00 32.2 7 Nordeste 16 Nordeste 0 -- -- 51
2020-08-27 11:00:00 30.6 7 Nordeste 13 Nordeste 0 -- -- 51
2020-08-27 10:00:00 29.4 4 Oeste 9 Oeste 0 -- -- 54
2020-08-27 09:00:00 27 5 Oeste 9 Oeste 0 -- -- 73
2020-08-27 08:00:00 24.7 4 Sur 12 Sudoeste 0 -- -- 89
2020-08-27 07:00:00 23.6 9 Sudoeste 13 Sudoeste 0 -- -- 91
2020-08-27 06:00:00 23.7 10 Sudoeste 14 Sudoeste 0 -- -- 90
2020-08-27 05:00:00 23.6 9 Sudoeste 12 Sur 0 -- -- 90
2020-08-27 04:00:00 23.7 4 Sudoeste 14 Sudoeste 0 -- -- 89
2020-08-27 03:00:00 23.9 7 Sudoeste 12 Sudoeste 0 -- -- 87
2020-08-27 02:00:00 23.8 8 Sudoeste 12 Sudoeste 0 -- -- 86
2020-08-27 01:00:00 23.4 7 Sur 9 Sur 0 -- -- 85
2020-08-27 00:00:00 24.2 6 Sudoeste 7 Sudoeste 0 -- -- 83
2020-08-26 23:00:00 24.7 5 Sudoeste 8 Sudoeste 0 -- -- 81
2020-08-26 22:00:00 25.1 6 Sudoeste 12 Sudoeste 0 -- -- 78
2020-08-26 21:00:00 25.9 8 Sudoeste 18 Sudoeste 0 -- -- 72
2020-08-26 20:00:00 27.4 14 Sudoeste 21 Sudoeste 0 -- -- 68
2020-08-26 19:00:00 29.6 15 Sudoeste 22 Sur 0 -- -- 58
2020-08-26 18:00:00 31.9 10 Sur 22 Sur 0 -- -- 50
2020-08-26 17:00:00 30.9 13 Nordeste 20 Nordeste 0 -- -- 57
2020-08-26 16:00:00 31.4 13 Norte 21 Nordeste 0 -- -- 55
2020-08-26 15:00:00 31.1 14 Nordeste 22 Nordeste 0 -- -- 54
2020-08-26 14:00:00 30.8 12 Norte 22 Norte 0 -- -- 54
2020-08-26 13:00:00 31.4 15 Norte 23 Norte 0 -- -- 53
2020-08-26 12:00:00 31.1 8 Sur 21 Sudoeste 0 -- -- 51
2020-08-26 11:00:00 29.6 15 Sudoeste 21 Sudoeste 0 -- -- 53
2020-08-26 10:00:00 29.2 9 Sur 15 Sur 0 -- -- 59
2020-08-26 09:00:00 26.7 9 Sur 14 Sur 0 -- -- 75
2020-08-26 08:00:00 24.1 3 Sur 7 Sudoeste 0 -- -- 86
2020-08-26 07:00:00 22.4 2 Sudoeste 7 Sudoeste 0 -- -- 87
2020-08-26 06:00:00 22.6 5 Sur 8 Sur 0 -- -- 87
2020-08-26 05:00:00 22.9 4 Sur 10 Sur 0 -- -- 85
2020-08-26 04:00:00 23.3 10 Sur 15 Sudoeste 0 -- -- 83
2020-08-26 03:00:00 23.4 9 Sudoeste 13 Sudoeste 0 -- -- 82
2020-08-26 02:00:00 23.6 10 Sudoeste 12 Sur 0 -- -- 81
2020-08-26 01:00:00 23.9 10 Sur 13 Sudoeste 0 -- -- 80
2020-08-26 00:00:00 24.3 6 Sudoeste 13 Sudoeste 0 -- -- 80